Waves Of Wonder — WDJ4626 — position and weather

sailwx.info

Track history (hours):
 
Tides and Currents Weather Stations Pressure Air Temp Water Temp Dewpoint Dewpoint Depression Visibility Wind Speed Wind Dir Waves Ship Positions

Waves Of Wonder

Owner: HNY Ferry Fleet LLC, New York, NY. More information available from US FCC via Universal Licensing System and Coast Guard Vessel Documentation Center.

Last reported at 2018-Jul-16 14:30 UTC. Time now 2018-Jul-16 14:38 UTC.
Position N 40°42' W 074°00'.

; draft 2 m.

Type: Passenger vessel. MMSI: 367779540.

Date/timePositionNaut miles runAvg speedWind from/ knotsBaromVisibWave heightAir tempDewpointWater temp
2018-Jul-16 14:30N 40°42' W 074°00'4 7.9
2018-Jul-16 14:00N 40°45' W 073°57'1 2.5
2018-Jul-16 13:30N 40°45' W 073°58'3 5.9
2018-Jul-16 13:00N 40°42' W 074°00'2 0.8
2018-Jul-16 11:06N 40°42' W 073°58'0 0.2
2018-Jul-16 11:00N 40°42' W 073°58'0 0.0
2018-Jul-16 10:31N 40°42' W 073°58'0 0.0
2018-Jul-16 10:01N 40°42' W 073°58'0 0.0
2018-Jul-16 09:30N 40°42' W 073°58'0 0.0
2018-Jul-16 09:00N 40°42' W 073°58'0 0.0
2018-Jul-16 08:30N 40°42' W 073°58'0 0.0
2018-Jul-16 07:59N 40°42' W 073°58'0 0.0
2018-Jul-16 07:30N 40°42' W 073°58'0 0.0
2018-Jul-16 07:00N 40°42' W 073°58'0 0.0
2018-Jul-16 00:06N 40°42' W 073°58'0 0.7
2018-Jul-16 00:00N 40°42' W 073°58'0 0.9
2018-Jul-15 23:30N 40°43' W 073°58'2 4.4
2018-Jul-15 23:01N 40°45' W 073°58'2 4.3
2018-Jul-15 22:30N 40°43' W 073°58'1 3.0
2018-Jul-15 22:00N 40°42' W 074°00'2 3.3
2018-Jul-15 21:30N 40°43' W 073°58'0 0.1
2018-Jul-15 20:29N 40°43' W 073°58'1 1.4
2018-Jul-15 19:41N 40°42' W 073°60'1 5.4
2018-Jul-15 19:26N 40°43' W 073°58'0 0.6
2018-Jul-15 18:44N 40°43' W 073°58'1 4.6
2018-Jul-15 18:26N 40°42' W 073°59'1 1.7
2018-Jul-15 17:56N 40°42' W 074°00'2 1.7
2018-Jul-15 16:41N 40°43' W 073°58'1 5.0
2018-Jul-15 16:25N 40°42' W 073°59'1 1.7
2018-Jul-15 15:55N 40°42' W 073°58'1 0.7
2018-Jul-15 14:19N 40°42' W 073°60'0 1.0
2018-Jul-15 13:49N 40°42' W 074°00'0 0.1
2018-Jul-15 13:29N 40°42' W 074°00'3 5.1
2018-Jul-15 12:59N 40°44' W 073°58'1 0.9
2018-Jul-15 12:25N 40°43' W 073°58'2 4.1
2018-Jul-15 11:58N 40°42' W 073°60'0 1.0
2018-Jul-15 11:30N 40°42' W 074°00'2 3.3
2018-Jul-15 11:00N 40°43' W 073°58'0 0.4
2018-Jul-15 10:18N 40°42' W 073°59'0 1.2
2018-Jul-15 09:59N 40°42' W 073°58'0 0.0
2018-Jul-15 03:26N 40°42' W 073°58'3 6.0
2018-Jul-15 03:00N 40°41' W 074°01'1014.2
2018-Jul-15 02:17N 40°35' W 073°50'514.2
2018-Jul-15 01:56N 40°34' W 073°56'615.1
2018-Jul-15 01:30N 40°38' W 074°02'4 8.7
2018-Jul-15 01:00N 40°42' W 074°00'511.0
2018-Jul-15 00:30N 40°37' W 074°03'7 7.2
2018-Jul-14 23:30N 40°34' W 073°54'815.6
2018-Jul-14 23:00N 40°39' W 074°02'4 7.8
2018-Jul-14 22:30N 40°42' W 074°00'611.5
2018-Jul-14 22:00N 40°37' W 074°03'7 7.0
2018-Jul-14 21:01N 40°34' W 073°54'420.7
2018-Jul-14 20:50N 40°34' W 073°59'516.2
2018-Jul-14 20:30N 40°39' W 074°02'3 7.0
2018-Jul-14 20:00N 40°42' W 074°00'613.0
2018-Jul-14 19:30N 40°36' W 074°02'3 2.8
2018-Jul-14 18:24N 40°34' W 073°59'513.3
2018-Jul-14 18:00N 40°39' W 074°02'4 7.4
2018-Jul-14 17:31N 40°42' W 074°00'1 2.5
2018-Jul-14 17:00N 40°42' W 073°58'0 0.0
2018-Jul-14 16:30N 40°42' W 073°58'0 0.2
2018-Jul-14 16:01N 40°42' W 073°58'0 0.0
2018-Jul-14 08:59N 40°42' W 073°58'0 0.0
2018-Jul-14 08:30N 40°42' W 073°58'0 0.0
2018-Jul-14 08:00N 40°42' W 073°58'0 0.0
2018-Jul-14 07:31N 40°42' W 073°58'0 0.0
2018-Jul-14 07:00N 40°42' W 073°58'0 0.0
2018-Jul-14 06:30N 40°42' W 073°58'0 0.0
2018-Jul-14 06:00N 40°42' W 073°58'0 0.0
2018-Jul-14 05:30N 40°42' W 073°58'0 0.0
2018-Jul-14 05:00N 40°42' W 073°58'0 0.0
2018-Jul-14 04:30N 40°42' W 073°58'0 0.0
2018-Jul-14 04:00N 40°42' W 073°58'0 0.0
2018-Jul-14 03:30N 40°42' W 073°58'0 0.0
2018-Jul-14 03:00N 40°42' W 073°58'0 0.0
2018-Jul-14 02:30N 40°42' W 073°58'0 0.0
2018-Jul-14 02:01N 40°42' W 073°58'0 0.0
2018-Jul-14 01:30N 40°42' W 073°58'0 0.0
2018-Jul-14 01:00N 40°42' W 073°58'0 0.0
2018-Jul-14 00:30N 40°42' W 073°58'0 0.0
2018-Jul-14 00:00N 40°42' W 073°58'0 0.0
2018-Jul-13 23:29N 40°42' W 073°58'0 0.0
2018-Jul-13 23:00N 40°42' W 073°58'0 0.0
2018-Jul-13 22:31N 40°42' W 073°58'0 0.0
2018-Jul-13 22:00N 40°42' W 073°58'0 0.0
2018-Jul-13 21:30N 40°42' W 073°58'0 0.0
2018-Jul-13 21:01N 40°42' W 073°58'0 0.0
2018-Jul-13 20:31N 40°42' W 073°58'0 0.0
2018-Jul-13 20:00N 40°42' W 073°58'0 0.0
2018-Jul-13 19:30N 40°42' W 073°58'0 0.0
2018-Jul-13 19:00N 40°42' W 073°58'1 1.4
2018-Jul-13 18:31N 40°42' W 073°59'2 4.4
2018-Jul-13 17:58N 40°45' W 073°58'1 1.9
2018-Jul-13 17:23N 40°45' W 073°57'3 8.2
2018-Jul-13 17:00N 40°43' W 073°59'2 3.9
2018-Jul-13 16:27N 40°45' W 073°58'1 2.4
2018-Jul-13 15:56N 40°46' W 073°57'3 7.0
2018-Jul-13 15:30N 40°43' W 073°58'2 3.6
2018-Jul-13 15:00N 40°45' W 073°58'1 1.7
2018-Jul-13 14:22N 40°45' W 073°57'1 1.2
2018-Jul-13 13:30N 40°45' W 073°58'2 2.9
2018-Jul-13 12:58N 40°46' W 073°57'4 9.8
2018-Jul-13 12:30N 40°42' W 074°00'3 6.8
2018-Jul-13 12:00N 40°45' W 073°57'3 5.7
2018-Jul-13 11:30N 40°42' W 073°58'0 0.5
2018-Jul-13 10:59N 40°42' W 073°58'0 0.0
2018-Jul-13 10:30N 40°42' W 073°58'0 0.0
2018-Jul-13 10:00N 40°42' W 073°58'0 0.0
2018-Jul-12 23:44N 40°42' W 073°58'2 7.5
2018-Jul-12 23:31N 40°42' W 074°00'917.0
2018-Jul-12 23:00N 40°34' W 073°56'2 2.8
2018-Jul-12 22:27N 40°34' W 073°54'716.8
2018-Jul-12 22:00N 40°38' W 074°03'3 5.3
2018-Jul-12 21:30N 40°41' W 074°01'7 6.1
2018-Jul-12 20:19N 40°34' W 073°58'517.7
2018-Jul-12 20:01N 40°38' W 074°03'3 5.9
2018-Jul-12 19:31N 40°41' W 074°01'815.2
2018-Jul-12 18:57N 40°34' W 073°54'3 4.3
2018-Jul-12 18:21N 40°34' W 073°58'617.7
2018-Jul-12 18:00N 40°39' W 074°02'3 5.6
2018-Jul-12 17:30N 40°42' W 074°00'4 7.6
2018-Jul-12 17:00N 40°39' W 074°03'510.0
2018-Jul-12 16:31N 40°42' W 073°58'0 0.5
2018-Jul-12 16:00N 40°42' W 073°58'0 0.0
2018-Jul-11 23:49N 40°42' W 073°58'3 9.7
2018-Jul-11 23:31N 40°40' W 074°01'815.5
2018-Jul-11 23:00N 40°34' W 073°54'2 4.1
2018-Jul-11 22:25N 40°34' W 073°57'615.3
2018-Jul-11 22:00N 40°39' W 074°02'0 0.8
2018-Jul-11 21:31N 40°40' W 074°02'3 2.1
2018-Jul-11 20:06N 40°37' W 074°03'219.5
2018-Jul-11 20:00N 40°39' W 074°02'1 2.6
2018-Jul-11 19:31N 40°40' W 074°01'5 3.4
2018-Jul-11 18:09N 40°35' W 074°01'321.5
2018-Jul-11 18:00N 40°38' W 074°03'4 8.9
2018-Jul-11 17:30N 40°42' W 074°00'2 3.1
2018-Jul-11 17:00N 40°42' W 073°58'0 0.4
2018-Jul-11 16:30N 40°42' W 073°58'0 0.0
2018-Jul-11 15:59N 40°42' W 073°58'0 0.0
2018-Jul-11 15:30N 40°42' W 073°58'0 0.0
2018-Jul-10 23:20N 40°42' W 073°58'2 4.8
2018-Jul-10 23:00N 40°42' W 074°00'3 7.0
2018-Jul-10 22:31N 40°45' W 073°57'1 1.3
2018-Jul-10 21:58N 40°46' W 073°57'4 8.3
2018-Jul-10 21:31N 40°42' W 073°60'3 4.8
2018-Jul-10 20:59N 40°45' W 073°58'1 2.3
2018-Jul-10 20:24N 40°46' W 073°57'2 5.4
2018-Jul-10 20:00N 40°44' W 073°58'1 1.7
2018-Jul-10 19:26N 40°45' W 073°58'1 1.8
2018-Jul-10 18:49N 40°45' W 073°57'2 6.7
2018-Jul-10 18:31N 40°43' W 073°58'1 2.1
2018-Jul-10 17:56N 40°45' W 073°58'1 2.3
2018-Jul-10 17:23N 40°46' W 073°57'3 6.9
2018-Jul-10 17:00N 40°43' W 073°58'2 2.8
2018-Jul-10 16:27N 40°45' W 073°58'1 2.5
2018-Jul-10 15:55N 40°46' W 073°57'3 7.6
2018-Jul-10 15:31N 40°43' W 073°58'2 3.6
2018-Jul-10 14:59N 40°45' W 073°58'1 1.7
2018-Jul-10 14:20N 40°45' W 073°57'3 8.4
2018-Jul-10 14:00N 40°43' W 073°58'2 3.7
2018-Jul-10 13:30N 40°45' W 073°58'1 2.1
2018-Jul-10 12:55N 40°46' W 073°57'4 8.7
2018-Jul-10 12:30N 40°42' W 073°59'3 5.5
2018-Jul-10 12:00N 40°45' W 073°57'1 1.8
2018-Jul-10 11:30N 40°46' W 073°57'4 7.6
2018-Jul-10 11:00N 40°42' W 073°58'0 0.0
2018-Jul-10 10:30N 40°42' W 073°58'0 0.0
2018-Jul-10 02:19N 40°42' W 073°58'0 1.5
2018-Jul-10 02:00N 40°42' W 073°59'3 5.9
2018-Jul-10 01:26N 40°46' W 073°57'1 1.7
2018-Jul-10 01:00N 40°45' W 073°57'3 6.8
2018-Jul-10 00:30N 40°42' W 074°00'4 8.1
2018-Jul-10 00:00N 40°45' W 073°57'0 0.7
2018-Jul-09 23:29N 40°45' W 073°57'4 7.7
2018-Jul-09 23:00N 40°42' W 074°00'3 6.5
2018-Jul-09 22:30N 40°45' W 073°58'1 1.9
2018-Jul-09 22:00N 40°46' W 073°57'4 8.6
2018-Jul-09 21:30N 40°42' W 074°00'3 5.8
2018-Jul-09 21:00N 40°45' W 073°58'2 4.2
2018-Jul-09 20:28N 40°46' W 073°56'3 7.1
2018-Jul-09 20:01N 40°44' W 073°58'1 2.3
2018-Jul-09 19:30N 40°45' W 073°58'1 2.7
2018-Jul-09 18:57N 40°46' W 073°57'4 9.4
2018-Jul-09 18:30N 40°42' W 074°00'3 5.2
2018-Jul-09 18:00N 40°45' W 073°58'1 2.3
2018-Jul-09 17:29N 40°45' W 073°57'3 5.8
2018-Jul-09 17:00N 40°43' W 073°58'2 3.3
2018-Jul-09 16:27N 40°45' W 073°58'1 2.4
2018-Jul-09 15:57N 40°45' W 073°57'3 6.0
2018-Jul-09 15:30N 40°43' W 073°58'2 3.0
2018-Jul-09 14:58N 40°45' W 073°58'1 1.6
2018-Jul-09 14:19N 40°45' W 073°57'3 9.1
2018-Jul-09 14:00N 40°43' W 073°58'2 4.2
2018-Jul-09 13:31N 40°45' W 073°58'1 2.2
2018-Jul-09 12:58N 40°46' W 073°57'4 8.7
2018-Jul-09 12:31N 40°42' W 074°00'3 6.6
2018-Jul-09 12:00N 40°45' W 073°57'0 0.9
2018-Jul-09 11:31N 40°45' W 073°57'3 6.8
2018-Jul-09 11:00N 40°42' W 073°58'0 0.0
2018-Jul-09 10:30N 40°42' W 073°58'0 0.0
2018-Jul-09 10:00N 40°42' W 073°58'0 0.0
2018-Jul-09 09:30N 40°42' W 073°58'0 0.0
2018-Jul-09 08:59N 40°42' W 073°58'0 0.0
2018-Jul-09 08:30N 40°42' W 073°58'0 0.0
2018-Jul-09 08:00N 40°42' W 073°58'0 0.0
2018-Jul-09 07:30N 40°42' W 073°58'0 0.0
2018-Jul-09 07:00N 40°42' W 073°58'0 0.0
2018-Jul-09 06:30N 40°42' W 073°58'0 0.0
2018-Jul-09 06:00N 40°42' W 073°58'0 0.0
2018-Jul-09 05:30N 40°42' W 073°58'0 0.0
2018-Jul-09 05:00N 40°42' W 073°58'0 0.0
2018-Jul-09 04:30N 40°42' W 073°58'0 0.0
2018-Jul-09 04:00N 40°42' W 073°58'0 0.0
2018-Jul-09 03:30N 40°42' W 073°58'0 0.0
2018-Jul-09 03:00N 40°42' W 073°58'0 0.0
2018-Jul-09 02:30N 40°42' W 073°58'0 0.0
2018-Jul-09 02:00N 40°42' W 073°58'0 0.0
2018-Jul-09 01:30N 40°42' W 073°58'0 0.0
2018-Jul-09 01:00N 40°42' W 073°58'0 0.0
2018-Jul-09 00:30N 40°42' W 073°58'0 0.0
2018-Jul-09 00:00N 40°42' W 073°58'0 0.0
2018-Jul-08 23:30N 40°42' W 073°58'0 0.0
2018-Jul-08 23:00N 40°42' W 073°58'0 0.0
2018-Jul-08 22:30N 40°42' W 073°58'0 0.0
2018-Jul-08 22:00N 40°42' W 073°58'0 0.0
2018-Jul-08 20:24N 40°42' W 073°58'0 0.0
2018-Jul-08 19:54N 40°42' W 073°58'2 4.8
2018-Jul-08 19:27N 40°44' W 073°58'1023.2
2018-Jul-08 19:00N 40°34' W 074°02'510.4
2018-Jul-08 18:30N 40°39' W 074°03'9 2.7
2018-Jul-08 15:23N 40°47' W 073°59'4 9.2
2018-Jul-08 15:00N 40°44' W 074°01'3 5.6
2018-Jul-08 14:29N 40°42' W 073°58'  
Track history (hours):
 
Tides and Currents Weather Stations Pressure Air Temp Water Temp Dewpoint Dewpoint Depression Visibility Wind Speed Wind Dir Waves Ship Positions

Waves Of Wonder

Owner: HNY Ferry Fleet LLC, New York, NY. More information available from US FCC via Universal Licensing System and Coast Guard Vessel Documentation Center.

Last reported at 2018-Jul-16 14:30 UTC. Time now 2018-Jul-16 14:38 UTC.
Position N 40°42' W 074°00'.

; draft 2 m.

Type: Passenger vessel. MMSI: 367779540.

Date/timePositionNaut miles runAvg speedWind from/ knotsBaromVisibWave heightAir tempDewpointWater temp
2018-Jul-16 14:30N 40°42' W 074°00'4 7.9
2018-Jul-16 14:00N 40°45' W 073°57'1 2.5
2018-Jul-16 13:30N 40°45' W 073°58'3 5.9
2018-Jul-16 13:00N 40°42' W 074°00'2 0.8
2018-Jul-16 11:06N 40°42' W 073°58'0 0.2
2018-Jul-16 11:00N 40°42' W 073°58'0 0.0
2018-Jul-16 10:31N 40°42' W 073°58'0 0.0
2018-Jul-16 10:01N 40°42' W 073°58'0 0.0
2018-Jul-16 09:30N 40°42' W 073°58'0 0.0
2018-Jul-16 09:00N 40°42' W 073°58'0 0.0
2018-Jul-16 08:30N 40°42' W 073°58'0 0.0
2018-Jul-16 07:59N 40°42' W 073°58'0 0.0
2018-Jul-16 07:30N 40°42' W 073°58'0 0.0
2018-Jul-16 07:00N 40°42' W 073°58'0 0.0
2018-Jul-16 00:06N 40°42' W 073°58'0 0.7
2018-Jul-16 00:00N 40°42' W 073°58'0 0.9
2018-Jul-15 23:30N 40°43' W 073°58'2 4.4
2018-Jul-15 23:01N 40°45' W 073°58'2 4.3
2018-Jul-15 22:30N 40°43' W 073°58'1 3.0
2018-Jul-15 22:00N 40°42' W 074°00'2 3.3
2018-Jul-15 21:30N 40°43' W 073°58'0 0.1
2018-Jul-15 20:29N 40°43' W 073°58'1 1.4
2018-Jul-15 19:41N 40°42' W 073°60'1 5.4
2018-Jul-15 19:26N 40°43' W 073°58'0 0.6
2018-Jul-15 18:44N 40°43' W 073°58'1 4.6
2018-Jul-15 18:26N 40°42' W 073°59'1 1.7
2018-Jul-15 17:56N 40°42' W 074°00'2 1.7
2018-Jul-15 16:41N 40°43' W 073°58'1 5.0
2018-Jul-15 16:25N 40°42' W 073°59'1 1.7
2018-Jul-15 15:55N 40°42' W 073°58'1 0.7
2018-Jul-15 14:19N 40°42' W 073°60'0 1.0
2018-Jul-15 13:49N 40°42' W 074°00'0 0.1
2018-Jul-15 13:29N 40°42' W 074°00'3 5.1
2018-Jul-15 12:59N 40°44' W 073°58'1 0.9
2018-Jul-15 12:25N 40°43' W 073°58'2 4.1
2018-Jul-15 11:58N 40°42' W 073°60'0 1.0
2018-Jul-15 11:30N 40°42' W 074°00'2 3.3
2018-Jul-15 11:00N 40°43' W 073°58'0 0.4
2018-Jul-15 10:18N 40°42' W 073°59'0 1.2
2018-Jul-15 09:59N 40°42' W 073°58'0 0.0
2018-Jul-15 03:26N 40°42' W 073°58'3 6.0
2018-Jul-15 03:00N 40°41' W 074°01'1014.2
2018-Jul-15 02:17N 40°35' W 073°50'514.2
2018-Jul-15 01:56N 40°34' W 073°56'615.1
2018-Jul-15 01:30N 40°38' W 074°02'4 8.7
2018-Jul-15 01:00N 40°42' W 074°00'511.0
2018-Jul-15 00:30N 40°37' W 074°03'7 7.2
2018-Jul-14 23:30N 40°34' W 073°54'815.6
2018-Jul-14 23:00N 40°39' W 074°02'4 7.8
2018-Jul-14 22:30N 40°42' W 074°00'611.5
2018-Jul-14 22:00N 40°37' W 074°03'7 7.0
2018-Jul-14 21:01N 40°34' W 073°54'420.7
2018-Jul-14 20:50N 40°34' W 073°59'516.2
2018-Jul-14 20:30N 40°39' W 074°02'3 7.0
2018-Jul-14 20:00N 40°42' W 074°00'613.0
2018-Jul-14 19:30N 40°36' W 074°02'3 2.8
2018-Jul-14 18:24N 40°34' W 073°59'513.3
2018-Jul-14 18:00N 40°39' W 074°02'4 7.4
2018-Jul-14 17:31N 40°42' W 074°00'1 2.5
2018-Jul-14 17:00N 40°42' W 073°58'0 0.0
2018-Jul-14 16:30N 40°42' W 073°58'0 0.2
2018-Jul-14 16:01N 40°42' W 073°58'0 0.0
2018-Jul-14 08:59N 40°42' W 073°58'0 0.0
2018-Jul-14 08:30N 40°42' W 073°58'0 0.0
2018-Jul-14 08:00N 40°42' W 073°58'0 0.0
2018-Jul-14 07:31N 40°42' W 073°58'0 0.0
2018-Jul-14 07:00N 40°42' W 073°58'0 0.0
2018-Jul-14 06:30N 40°42' W 073°58'0 0.0
2018-Jul-14 06:00N 40°42' W 073°58'0 0.0
2018-Jul-14 05:30N 40°42' W 073°58'0 0.0
2018-Jul-14 05:00N 40°42' W 073°58'0 0.0
2018-Jul-14 04:30N 40°42' W 073°58'0 0.0
2018-Jul-14 04:00N 40°42' W 073°58'0 0.0
2018-Jul-14 03:30N 40°42' W 073°58'0 0.0
2018-Jul-14 03:00N 40°42' W 073°58'0 0.0
2018-Jul-14 02:30N 40°42' W 073°58'0 0.0
2018-Jul-14 02:01N 40°42' W 073°58'0 0.0
2018-Jul-14 01:30N 40°42' W 073°58'0 0.0
2018-Jul-14 01:00N 40°42' W 073°58'0 0.0
2018-Jul-14 00:30N 40°42' W 073°58'0 0.0
2018-Jul-14 00:00N 40°42' W 073°58'0 0.0
2018-Jul-13 23:29N 40°42' W 073°58'0 0.0
2018-Jul-13 23:00N 40°42' W 073°58'0 0.0
2018-Jul-13 22:31N 40°42' W 073°58'0 0.0
2018-Jul-13 22:00N 40°42' W 073°58'0 0.0
2018-Jul-13 21:30N 40°42' W 073°58'0 0.0
2018-Jul-13 21:01N 40°42' W 073°58'0 0.0
2018-Jul-13 20:31N 40°42' W 073°58'0 0.0
2018-Jul-13 20:00N 40°42' W 073°58'0 0.0
2018-Jul-13 19:30N 40°42' W 073°58'0 0.0
2018-Jul-13 19:00N 40°42' W 073°58'1 1.4
2018-Jul-13 18:31N 40°42' W 073°59'2 4.4
2018-Jul-13 17:58N 40°45' W 073°58'1 1.9
2018-Jul-13 17:23N 40°45' W 073°57'3 8.2
2018-Jul-13 17:00N 40°43' W 073°59'2 3.9
2018-Jul-13 16:27N 40°45' W 073°58'1 2.4
2018-Jul-13 15:56N 40°46' W 073°57'3 7.0
2018-Jul-13 15:30N 40°43' W 073°58'2 3.6
2018-Jul-13 15:00N 40°45' W 073°58'1 1.7
2018-Jul-13 14:22N 40°45' W 073°57'1 1.2
2018-Jul-13 13:30N 40°45' W 073°58'2 2.9
2018-Jul-13 12:58N 40°46' W 073°57'4 9.8
2018-Jul-13 12:30N 40°42' W 074°00'3 6.8
2018-Jul-13 12:00N 40°45' W 073°57'3 5.7
2018-Jul-13 11:30N 40°42' W 073°58'0 0.5
2018-Jul-13 10:59N 40°42' W 073°58'0 0.0
2018-Jul-13 10:30N 40°42' W 073°58'0 0.0
2018-Jul-13 10:00N 40°42' W 073°58'0 0.0
2018-Jul-12 23:44N 40°42' W 073°58'2 7.5
2018-Jul-12 23:31N 40°42' W 074°00'917.0
2018-Jul-12 23:00N 40°34' W 073°56'2 2.8
2018-Jul-12 22:27N 40°34' W 073°54'716.8
2018-Jul-12 22:00N 40°38' W 074°03'3 5.3
2018-Jul-12 21:30N 40°41' W 074°01'7 6.1
2018-Jul-12 20:19N 40°34' W 073°58'517.7
2018-Jul-12 20:01N 40°38' W 074°03'3 5.9
2018-Jul-12 19:31N 40°41' W 074°01'815.2
2018-Jul-12 18:57N 40°34' W 073°54'3 4.3
2018-Jul-12 18:21N 40°34' W 073°58'617.7
2018-Jul-12 18:00N 40°39' W 074°02'3 5.6
2018-Jul-12 17:30N 40°42' W 074°00'4 7.6
2018-Jul-12 17:00N 40°39' W 074°03'510.0
2018-Jul-12 16:31N 40°42' W 073°58'0 0.5
2018-Jul-12 16:00N 40°42' W 073°58'0 0.0
2018-Jul-11 23:49N 40°42' W 073°58'3 9.7
2018-Jul-11 23:31N 40°40' W 074°01'815.5
2018-Jul-11 23:00N 40°34' W 073°54'2 4.1
2018-Jul-11 22:25N 40°34' W 073°57'615.3
2018-Jul-11 22:00N 40°39' W 074°02'0 0.8
2018-Jul-11 21:31N 40°40' W 074°02'3 2.1
2018-Jul-11 20:06N 40°37' W 074°03'219.5
2018-Jul-11 20:00N 40°39' W 074°02'1 2.6
2018-Jul-11 19:31N 40°40' W 074°01'5 3.4
2018-Jul-11 18:09N 40°35' W 074°01'321.5
2018-Jul-11 18:00N 40°38' W 074°03'4 8.9
2018-Jul-11 17:30N 40°42' W 074°00'2 3.1
2018-Jul-11 17:00N 40°42' W 073°58'0 0.4
2018-Jul-11 16:30N 40°42' W 073°58'0 0.0
2018-Jul-11 15:59N 40°42' W 073°58'0 0.0
2018-Jul-11 15:30N 40°42' W 073°58'0 0.0
2018-Jul-10 23:20N 40°42' W 073°58'2 4.8
2018-Jul-10 23:00N 40°42' W 074°00'3 7.0
2018-Jul-10 22:31N 40°45' W 073°57'1 1.3
2018-Jul-10 21:58N 40°46' W 073°57'4 8.3
2018-Jul-10 21:31N 40°42' W 073°60'3 4.8
2018-Jul-10 20:59N 40°45' W 073°58'1 2.3
2018-Jul-10 20:24N 40°46' W 073°57'2 5.4
2018-Jul-10 20:00N 40°44' W 073°58'1 1.7
2018-Jul-10 19:26N 40°45' W 073°58'1 1.8
2018-Jul-10 18:49N 40°45' W 073°57'2 6.7
2018-Jul-10 18:31N 40°43' W 073°58'1 2.1
2018-Jul-10 17:56N 40°45' W 073°58'1 2.3
2018-Jul-10 17:23N 40°46' W 073°57'3 6.9
2018-Jul-10 17:00N 40°43' W 073°58'2 2.8
2018-Jul-10 16:27N 40°45' W 073°58'1 2.5
2018-Jul-10 15:55N 40°46' W 073°57'3 7.6
2018-Jul-10 15:31N 40°43' W 073°58'2 3.6
2018-Jul-10 14:59N 40°45' W 073°58'1 1.7
2018-Jul-10 14:20N 40°45' W 073°57'3 8.4
2018-Jul-10 14:00N 40°43' W 073°58'2 3.7
2018-Jul-10 13:30N 40°45' W 073°58'1 2.1
2018-Jul-10 12:55N 40°46' W 073°57'4 8.7
2018-Jul-10 12:30N 40°42' W 073°59'3 5.5
2018-Jul-10 12:00N 40°45' W 073°57'1 1.8
2018-Jul-10 11:30N 40°46' W 073°57'4 7.6
2018-Jul-10 11:00N 40°42' W 073°58'0 0.0
2018-Jul-10 10:30N 40°42' W 073°58'0 0.0
2018-Jul-10 02:19N 40°42' W 073°58'0 1.5
2018-Jul-10 02:00N 40°42' W 073°59'3 5.9
2018-Jul-10 01:26N 40°46' W 073°57'1 1.7
2018-Jul-10 01:00N 40°45' W 073°57'3 6.8
2018-Jul-10 00:30N 40°42' W 074°00'4 8.1
2018-Jul-10 00:00N 40°45' W 073°57'0 0.7
2018-Jul-09 23:29N 40°45' W 073°57'4 7.7
2018-Jul-09 23:00N 40°42' W 074°00'3 6.5
2018-Jul-09 22:30N 40°45' W 073°58'1 1.9
2018-Jul-09 22:00N 40°46' W 073°57'4 8.6
2018-Jul-09 21:30N 40°42' W 074°00'3 5.8
2018-Jul-09 21:00N 40°45' W 073°58'2 4.2
2018-Jul-09 20:28N 40°46' W 073°56'3 7.1
2018-Jul-09 20:01N 40°44' W 073°58'1 2.3
2018-Jul-09 19:30N 40°45' W 073°58'1 2.7
2018-Jul-09 18:57N 40°46' W 073°57'4 9.4
2018-Jul-09 18:30N 40°42' W 074°00'3 5.2
2018-Jul-09 18:00N 40°45' W 073°58'1 2.3
2018-Jul-09 17:29N 40°45' W 073°57'3 5.8
2018-Jul-09 17:00N 40°43' W 073°58'2 3.3
2018-Jul-09 16:27N 40°45' W 073°58'1 2.4
2018-Jul-09 15:57N 40°45' W 073°57'3 6.0
2018-Jul-09 15:30N 40°43' W 073°58'2 3.0
2018-Jul-09 14:58N 40°45' W 073°58'1 1.6
2018-Jul-09 14:19N 40°45' W 073°57'3 9.1
2018-Jul-09 14:00N 40°43' W 073°58'2 4.2
2018-Jul-09 13:31N 40°45' W 073°58'1 2.2
2018-Jul-09 12:58N 40°46' W 073°57'4 8.7
2018-Jul-09 12:31N 40°42' W 074°00'3 6.6
2018-Jul-09 12:00N 40°45' W 073°57'0 0.9
2018-Jul-09 11:31N 40°45' W 073°57'3 6.8
2018-Jul-09 11:00N 40°42' W 073°58'0 0.0
2018-Jul-09 10:30N 40°42' W 073°58'0 0.0
2018-Jul-09 10:00N 40°42' W 073°58'0 0.0
2018-Jul-09 09:30N 40°42' W 073°58'0 0.0
2018-Jul-09 08:59N 40°42' W 073°58'0 0.0
2018-Jul-09 08:30N 40°42' W 073°58'0 0.0
2018-Jul-09 08:00N 40°42' W 073°58'0 0.0
2018-Jul-09 07:30N 40°42' W 073°58'0 0.0
2018-Jul-09 07:00N 40°42' W 073°58'0 0.0
2018-Jul-09 06:30N 40°42' W 073°58'0 0.0
2018-Jul-09 06:00N 40°42' W 073°58'0 0.0
2018-Jul-09 05:30N 40°42' W 073°58'0 0.0
2018-Jul-09 05:00N 40°42' W 073°58'0 0.0
2018-Jul-09 04:30N 40°42' W 073°58'0 0.0
2018-Jul-09 04:00N 40°42' W 073°58'0 0.0
2018-Jul-09 03:30N 40°42' W 073°58'0 0.0
2018-Jul-09 03:00N 40°42' W 073°58'0 0.0
2018-Jul-09 02:30N 40°42' W 073°58'0 0.0
2018-Jul-09 02:00N 40°42' W 073°58'0 0.0
2018-Jul-09 01:30N 40°42' W 073°58'0 0.0
2018-Jul-09 01:00N 40°42' W 073°58'0 0.0
2018-Jul-09 00:30N 40°42' W 073°58'0 0.0
2018-Jul-09 00:00N 40°42' W 073°58'0 0.0
2018-Jul-08 23:30N 40°42' W 073°58'0 0.0
2018-Jul-08 23:00N 40°42' W 073°58'0 0.0
2018-Jul-08 22:30N 40°42' W 073°58'0 0.0
2018-Jul-08 22:00N 40°42' W 073°58'0 0.0
2018-Jul-08 20:24N 40°42' W 073°58'0 0.0
2018-Jul-08 19:54N 40°42' W 073°58'2 4.8
2018-Jul-08 19:27N 40°44' W 073°58'1023.2
2018-Jul-08 19:00N 40°34' W 074°02'510.4
2018-Jul-08 18:30N 40°39' W 074°03'9 2.7
2018-Jul-08 15:23N 40°47' W 073°59'4 9.2
2018-Jul-08 15:00N 40°44' W 074°01'3 5.6
2018-Jul-08 14:29N 40°42' W 073°58'  

Dump ship's entire track history